sensor_id;sensor_type;location;lat;lon;timestamp;P1;durP1;ratioP1;P2;durP2;ratioP2
11618;SDS011;5865;48.776;9.280;2023-09-08T00:02:10;7.93;;;5.87;;
11618;SDS011;5865;48.776;9.280;2023-09-08T00:11:23;6.63;;;5.93;;
11618;SDS011;5865;48.776;9.280;2023-09-08T00:13:50;6.40;;;5.80;;
11618;SDS011;5865;48.776;9.280;2023-09-08T00:16:31;6.93;;;6.23;;
11618;SDS011;5865;48.776;9.280;2023-09-08T00:19:04;7.30;;;5.80;;
11618;SDS011;5865;48.776;9.280;2023-09-08T00:21:39;6.57;;;5.97;;
11618;SDS011;5865;48.776;9.280;2023-09-08T00:24:11;6.63;;;5.77;;
11618;SDS011;5865;48.776;9.280;2023-09-08T00:27:03;6.77;;;6.07;;
11618;SDS011;5865;48.776;9.280;2023-09-08T00:29:32;6.43;;;5.77;;
11618;SDS011;5865;48.776;9.280;2023-09-08T00:32:13;6.07;;;5.47;;
11618;SDS011;5865;48.776;9.280;2023-09-08T00:34:54;6.37;;;5.77;;
11618;SDS011;5865;48.776;9.280;2023-09-08T00:37:35;8.10;;;6.30;;
11618;SDS011;5865;48.776;9.280;2023-09-08T00:40:16;7.57;;;6.30;;
11618;SDS011;5865;48.776;9.280;2023-09-08T00:43:03;7.27;;;6.13;;
11618;SDS011;5865;48.776;9.280;2023-09-08T00:45:44;7.43;;;6.40;;
11618;SDS011;5865;48.776;9.280;2023-09-08T00:48:27;6.63;;;6.03;;
11618;SDS011;5865;48.776;9.280;2023-09-08T00:51:09;6.47;;;5.87;;
11618;SDS011;5865;48.776;9.280;2023-09-08T00:53:50;6.90;;;6.20;;
11618;SDS011;5865;48.776;9.280;2023-09-08T00:56:31;6.67;;;5.70;;
11618;SDS011;5865;48.776;9.280;2023-09-08T00:59:06;7.47;;;6.50;;
11618;SDS011;5865;48.776;9.280;2023-09-08T01:01:48;6.77;;;5.90;;
11618;SDS011;5865;48.776;9.280;2023-09-08T01:04:29;7.13;;;6.43;;
11618;SDS011;5865;48.776;9.280;2023-09-08T01:07:10;6.87;;;5.97;;
11618;SDS011;5865;48.776;9.280;2023-09-08T01:09:51;7.40;;;6.63;;
11618;SDS011;5865;48.776;9.280;2023-09-08T01:12:33;7.43;;;6.63;;
11618;SDS011;5865;48.776;9.280;2023-09-08T01:15:16;8.60;;;6.37;;
11618;SDS011;5865;48.776;9.280;2023-09-08T01:17:59;8.97;;;7.10;;
11618;SDS011;5865;48.776;9.280;2023-09-08T01:20:46;6.70;;;5.83;;
11618;SDS011;5865;48.776;9.280;2023-09-08T01:23:48;6.77;;;6.07;;
11618;SDS011;5865;48.776;9.280;2023-09-08T01:29:45;8.30;;;6.63;;
11618;SDS011;5865;48.776;9.280;2023-09-08T01:32:28;7.60;;;6.50;;
11618;SDS011;5865;48.776;9.280;2023-09-08T01:34:58;6.90;;;6.20;;
11618;SDS011;5865;48.776;9.280;2023-09-08T01:37:41;8.67;;;6.73;;
11618;SDS011;5865;48.776;9.280;2023-09-08T01:40:22;7.27;;;6.57;;
11618;SDS011;5865;48.776;9.280;2023-09-08T01:45:38;8.03;;;7.23;;
11618;SDS011;5865;48.776;9.280;2023-09-08T01:48:20;7.03;;;6.30;;
11618;SDS011;5865;48.776;9.280;2023-09-08T01:51:00;8.23;;;6.40;;
11618;SDS011;5865;48.776;9.280;2023-09-08T01:53:30;7.07;;;6.37;;
11618;SDS011;5865;48.776;9.280;2023-09-08T01:56:05;7.20;;;6.50;;
11618;SDS011;5865;48.776;9.280;2023-09-08T02:01:40;6.90;;;6.10;;
11618;SDS011;5865;48.776;9.280;2023-09-08T02:04:15;7.40;;;6.67;;
11618;SDS011;5865;48.776;9.280;2023-09-08T02:06:56;7.33;;;6.60;;
11618;SDS011;5865;48.776;9.280;2023-09-08T02:09:38;6.73;;;6.03;;
11618;SDS011;5865;48.776;9.280;2023-09-08T02:12:19;7.03;;;6.33;;
11618;SDS011;5865;48.776;9.280;2023-09-08T02:18:00;6.93;;;6.23;;
11618;SDS011;5865;48.776;9.280;2023-09-08T02:20:40;8.00;;;6.20;;
11618;SDS011;5865;48.776;9.280;2023-09-08T02:23:21;7.53;;;6.33;;
11618;SDS011;5865;48.776;9.280;2023-09-08T02:26:02;8.67;;;7.07;;
11618;SDS011;5865;48.776;9.280;2023-09-08T02:28:43;7.97;;;6.80;;
11618;SDS011;5865;48.776;9.280;2023-09-08T02:34:12;7.73;;;6.93;;
11618;SDS011;5865;48.776;9.280;2023-09-08T02:36:45;8.03;;;6.93;;
11618;SDS011;5865;48.776;9.280;2023-09-08T02:39:21;8.43;;;7.40;;
11618;SDS011;5865;48.776;9.280;2023-09-08T02:42:03;8.07;;;7.17;;
11618;SDS011;5865;48.776;9.280;2023-09-08T02:44:44;7.87;;;7.03;;
11618;SDS011;5865;48.776;9.280;2023-09-08T02:47:13;8.10;;;7.00;;
11618;SDS011;5865;48.776;9.280;2023-09-08T02:52:54;7.90;;;7.10;;
11618;SDS011;5865;48.776;9.280;2023-09-08T02:55:36;8.20;;;7.37;;
11618;SDS011;5865;48.776;9.280;2023-09-08T02:58:18;8.07;;;7.10;;
11618;SDS011;5865;48.776;9.280;2023-09-08T03:01:09;7.77;;;7.03;;
11618;SDS011;5865;48.776;9.280;2023-09-08T03:03:50;7.90;;;7.13;;
11618;SDS011;5865;48.776;9.280;2023-09-08T03:06:23;7.90;;;7.10;;
11618;SDS011;5865;48.776;9.280;2023-09-08T03:08:50;8.80;;;7.40;;
11618;SDS011;5865;48.776;9.280;2023-09-08T03:11:31;8.30;;;7.17;;
11618;SDS011;5865;48.776;9.280;2023-09-08T03:14:12;7.70;;;6.90;;
11618;SDS011;5865;48.776;9.280;2023-09-08T03:16:54;7.77;;;6.90;;
11618;SDS011;5865;48.776;9.280;2023-09-08T03:19:35;8.00;;;6.93;;
11618;SDS011;5865;48.776;9.280;2023-09-08T03:22:10;8.70;;;7.40;;
11618;SDS011;5865;48.776;9.280;2023-09-08T03:24:52;8.27;;;7.40;;
11618;SDS011;5865;48.776;9.280;2023-09-08T03:27:33;7.93;;;7.13;;
11618;SDS011;5865;48.776;9.280;2023-09-08T03:30:03;10.50;;;7.73;;
11618;SDS011;5865;48.776;9.280;2023-09-08T03:32:45;9.77;;;8.50;;
11618;SDS011;5865;48.776;9.280;2023-09-08T03:35:27;8.33;;;7.53;;
11618;SDS011;5865;48.776;9.280;2023-09-08T03:41:17;8.83;;;7.70;;
11618;SDS011;5865;48.776;9.280;2023-09-08T03:43:58;9.10;;;7.70;;
11618;SDS011;5865;48.776;9.280;2023-09-08T03:46:39;9.43;;;7.87;;
11618;SDS011;5865;48.776;9.280;2023-09-08T03:49:20;9.37;;;8.30;;
11618;SDS011;5865;48.776;9.280;2023-09-08T03:51:49;9.10;;;8.10;;
11618;SDS011;5865;48.776;9.280;2023-09-08T03:54:30;9.33;;;8.37;;
11618;SDS011;5865;48.776;9.280;2023-09-08T03:57:15;9.30;;;8.33;;
11618;SDS011;5865;48.776;9.280;2023-09-08T03:59:56;11.23;;;9.10;;
11618;SDS011;5865;48.776;9.280;2023-09-08T04:02:39;10.37;;;8.63;;
11618;SDS011;5865;48.776;9.280;2023-09-08T04:05:20;8.70;;;7.80;;
11618;SDS011;5865;48.776;9.280;2023-09-08T04:08:01;9.83;;;8.43;;
11618;SDS011;5865;48.776;9.280;2023-09-08T04:10:42;12.63;;;9.03;;
11618;SDS011;5865;48.776;9.280;2023-09-08T04:19:21;9.47;;;8.47;;
11618;SDS011;5865;48.776;9.280;2023-09-08T04:21:48;9.93;;;8.87;;
11618;SDS011;5865;48.776;9.280;2023-09-08T04:24:18;10.53;;;9.17;;
11618;SDS011;5865;48.776;9.280;2023-09-08T04:26:48;10.43;;;8.73;;
11618;SDS011;5865;48.776;9.280;2023-09-08T04:29:17;10.30;;;9.17;;
11618;SDS011;5865;48.776;9.280;2023-09-08T04:31:58;10.63;;;8.03;;
11618;SDS011;5865;48.776;9.280;2023-09-08T04:37:40;9.83;;;8.50;;
11618;SDS011;5865;48.776;9.280;2023-09-08T04:40:14;9.70;;;8.70;;
11618;SDS011;5865;48.776;9.280;2023-09-08T04:42:54;9.50;;;8.27;;
11618;SDS011;5865;48.776;9.280;2023-09-08T04:45:26;10.87;;;9.20;;
11618;SDS011;5865;48.776;9.280;2023-09-08T04:48:09;10.03;;;8.77;;
11618;SDS011;5865;48.776;9.280;2023-09-08T04:50:54;9.63;;;8.23;;
11618;SDS011;5865;48.776;9.280;2023-09-08T04:53:35;9.43;;;8.27;;
11618;SDS011;5865;48.776;9.280;2023-09-08T04:56:16;10.27;;;8.70;;
11618;SDS011;5865;48.776;9.280;2023-09-08T04:58:58;10.47;;;9.30;;
11618;SDS011;5865;48.776;9.280;2023-09-08T05:01:39;10.33;;;9.07;;
11618;SDS011;5865;48.776;9.280;2023-09-08T05:04:08;11.47;;;9.73;;
11618;SDS011;5865;48.776;9.280;2023-09-08T05:06:53;13.10;;;9.43;;
11618;SDS011;5865;48.776;9.280;2023-09-08T05:09:22;10.97;;;9.27;;
11618;SDS011;5865;48.776;9.280;2023-09-08T05:12:03;13.10;;;10.20;;
11618;SDS011;5865;48.776;9.280;2023-09-08T05:14:44;12.77;;;10.73;;
11618;SDS011;5865;48.776;9.280;2023-09-08T05:17:25;10.93;;;9.50;;
11618;SDS011;5865;48.776;9.280;2023-09-08T05:19:56;10.40;;;9.30;;
11618;SDS011;5865;48.776;9.280;2023-09-08T05:22:27;12.47;;;9.83;;
11618;SDS011;5865;48.776;9.280;2023-09-08T05:24:56;12.03;;;10.00;;
11618;SDS011;5865;48.776;9.280;2023-09-08T05:27:38;12.37;;;10.23;;
11618;SDS011;5865;48.776;9.280;2023-09-08T05:30:14;12.10;;;10.47;;
11618;SDS011;5865;48.776;9.280;2023-09-08T05:32:56;14.37;;;10.47;;
11618;SDS011;5865;48.776;9.280;2023-09-08T05:35:37;11.43;;;9.97;;
11618;SDS011;5865;48.776;9.280;2023-09-08T05:41:05;12.00;;;10.00;;
11618;SDS011;5865;48.776;9.280;2023-09-08T05:43:38;10.83;;;9.73;;
11618;SDS011;5865;48.776;9.280;2023-09-08T05:46:20;11.30;;;9.93;;
11618;SDS011;5865;48.776;9.280;2023-09-08T05:49:02;11.60;;;10.10;;
11618;SDS011;5865;48.776;9.280;2023-09-08T05:51:44;13.03;;;11.00;;
11618;SDS011;5865;48.776;9.280;2023-09-08T05:54:49;14.00;;;11.30;;
11618;SDS011;5865;48.776;9.280;2023-09-08T05:57:40;12.40;;;10.50;;
11618;SDS011;5865;48.776;9.280;2023-09-08T06:13:48;11.80;;;10.50;;
11618;SDS011;5865;48.776;9.280;2023-09-08T06:16:37;13.43;;;11.00;;
11618;SDS011;5865;48.776;9.280;2023-09-08T06:19:26;10.97;;;9.87;;
11618;SDS011;5865;48.776;9.280;2023-09-08T06:22:44;14.33;;;11.60;;
11618;SDS011;5865;48.776;9.280;2023-09-08T06:25:55;14.83;;;11.57;;
11618;SDS011;5865;48.776;9.280;2023-09-08T06:41:11;11.05;;;9.95;;
11618;SDS011;5865;48.776;9.280;2023-09-08T06:43:53;15.02;;;11.32;;
11618;SDS011;5865;48.776;9.280;2023-09-08T06:46:38;13.32;;;10.70;;
11618;SDS011;5865;48.776;9.280;2023-09-08T06:49:26;11.95;;;10.18;;
11618;SDS011;5865;48.776;9.280;2023-09-08T06:52:08;10.48;;;8.80;;
11618;SDS011;5865;48.776;9.280;2023-09-08T06:54:52;9.07;;;8.18;;
11618;SDS011;5865;48.776;9.280;2023-09-08T07:00:38;9.63;;;7.53;;
11618;SDS011;5865;48.776;9.280;2023-09-08T07:03:25;9.48;;;7.55;;
11618;SDS011;5865;48.776;9.280;2023-09-08T07:06:13;8.63;;;7.80;;
11618;SDS011;5865;48.776;9.280;2023-09-08T07:09:12;10.68;;;7.50;;
11618;SDS011;5865;48.776;9.280;2023-09-08T07:12:07;8.52;;;6.82;;
11618;SDS011;5865;48.776;9.280;2023-09-08T07:15:00;8.68;;;6.57;;
11618;SDS011;5865;48.776;9.280;2023-09-08T07:26:45;6.85;;;5.93;;
11618;SDS011;5865;48.776;9.280;2023-09-08T07:29:22;6.25;;;5.65;;
11618;SDS011;5865;48.776;9.280;2023-09-08T07:32:08;8.88;;;6.38;;
11618;SDS011;5865;48.776;9.280;2023-09-08T07:34:49;6.50;;;5.35;;
11618;SDS011;5865;48.776;9.280;2023-09-08T07:37:31;6.38;;;5.72;;
11618;SDS011;5865;48.776;9.280;2023-09-08T07:40:09;8.45;;;5.90;;
11618;SDS011;5865;48.776;9.280;2023-09-08T07:48:50;5.63;;;5.13;;
11618;SDS011;5865;48.776;9.280;2023-09-08T07:51:31;6.70;;;5.15;;
11618;SDS011;5865;48.776;9.280;2023-09-08T07:54:14;6.47;;;5.50;;
11618;SDS011;5865;48.776;9.280;2023-09-08T07:56:58;7.28;;;5.97;;
11618;SDS011;5865;48.776;9.280;2023-09-08T07:59:35;6.30;;;5.72;;
11618;SDS011;5865;48.776;9.280;2023-09-08T08:02:05;7.85;;;5.15;;
11618;SDS011;5865;48.776;9.280;2023-09-08T08:04:51;5.38;;;4.82;;
11618;SDS011;5865;48.776;9.280;2023-09-08T08:07:32;5.85;;;5.20;;
11618;SDS011;5865;48.776;9.280;2023-09-08T08:10:15;6.78;;;5.35;;
11618;SDS011;5865;48.776;9.280;2023-09-08T08:13:21;6.65;;;5.35;;
11618;SDS011;5865;48.776;9.280;2023-09-08T08:16:14;7.55;;;5.00;;
11618;SDS011;5865;48.776;9.280;2023-09-08T08:19:04;6.57;;;5.43;;
11618;SDS011;5865;48.776;9.280;2023-09-08T08:37:21;5.68;;;5.13;;
11618;SDS011;5865;48.776;9.280;2023-09-08T08:40:10;6.30;;;5.18;;
11618;SDS011;5865;48.776;9.280;2023-09-08T08:42:57;7.45;;;4.80;;
11618;SDS011;5865;48.776;9.280;2023-09-08T08:45:41;5.28;;;4.60;;
11618;SDS011;5865;48.776;9.280;2023-09-08T08:48:19;5.60;;;4.63;;
11618;SDS011;5865;48.776;9.280;2023-09-08T08:51:27;8.10;;;4.90;;
11618;SDS011;5865;48.776;9.280;2023-09-08T09:03:05;4.93;;;4.20;;
11618;SDS011;5865;48.776;9.280;2023-09-08T09:06:38;4.85;;;4.25;;
11618;SDS011;5865;48.776;9.280;2023-09-08T09:09:30;6.28;;;4.22;;
11618;SDS011;5865;48.776;9.280;2023-09-08T09:12:12;4.68;;;4.15;;
11618;SDS011;5865;48.776;9.280;2023-09-08T09:15:03;4.47;;;4.07;;
11618;SDS011;5865;48.776;9.280;2023-09-08T09:20:26;6.05;;;4.30;;
11618;SDS011;5865;48.776;9.280;2023-09-08T10:03:10;4.57;;;3.97;;
11618;SDS011;5865;48.776;9.280;2023-09-08T10:05:55;6.90;;;4.32;;
11618;SDS011;5865;48.776;9.280;2023-09-08T10:08:50;8.90;;;4.30;;
11618;SDS011;5865;48.776;9.280;2023-09-08T10:15:06;5.05;;;4.35;;
11618;SDS011;5865;48.776;9.280;2023-09-08T11:40:38;4.60;;;4.20;;
11618;SDS011;5865;48.776;9.280;2023-09-08T11:43:54;5.63;;;4.30;;
11618;SDS011;5865;48.776;9.280;2023-09-08T11:53:25;4.45;;;3.97;;
11618;SDS011;5865;48.776;9.280;2023-09-08T13:23:02;4.90;;;4.03;;
11618;SDS011;5865;48.776;9.280;2023-09-08T13:25:44;5.13;;;3.83;;
11618;SDS011;5865;48.776;9.280;2023-09-08T13:28:33;4.63;;;3.67;;
11618;SDS011;5865;48.776;9.280;2023-09-08T13:31:18;5.15;;;4.03;;
11618;SDS011;5865;48.776;9.280;2023-09-08T13:34:01;4.90;;;3.85;;
11618;SDS011;5865;48.776;9.280;2023-09-08T13:36:52;4.10;;;3.70;;
11618;SDS011;5865;48.776;9.280;2023-09-08T13:39:38;3.88;;;3.58;;
11618;SDS011;5865;48.776;9.280;2023-09-08T13:42:08;4.97;;;3.70;;
11618;SDS011;5865;48.776;9.280;2023-09-08T13:45:15;3.80;;;3.50;;
11618;SDS011;5865;48.776;9.280;2023-09-08T13:47:49;4.82;;;3.40;;
11618;SDS011;5865;48.776;9.280;2023-09-08T13:53:24;4.20;;;3.75;;
11618;SDS011;5865;48.776;9.280;2023-09-08T14:07:43;5.03;;;3.47;;
11618;SDS011;5865;48.776;9.280;2023-09-08T14:10:36;3.60;;;3.30;;
11618;SDS011;5865;48.776;9.280;2023-09-08T14:13:20;3.83;;;3.53;;
11618;SDS011;5865;48.776;9.280;2023-09-08T14:16:07;5.47;;;3.55;;
11618;SDS011;5865;48.776;9.280;2023-09-08T14:18:53;3.90;;;3.60;;
11618;SDS011;5865;48.776;9.280;2023-09-08T14:40:09;4.65;;;3.50;;
11618;SDS011;5865;48.776;9.280;2023-09-08T14:42:37;4.65;;;3.65;;
11618;SDS011;5865;48.776;9.280;2023-09-08T14:45:20;3.67;;;3.38;;
11618;SDS011;5865;48.776;9.280;2023-09-08T14:48:01;4.05;;;3.60;;
11618;SDS011;5865;48.776;9.280;2023-09-08T14:50:47;3.85;;;3.47;;
11618;SDS011;5865;48.776;9.280;2023-09-08T15:02:21;4.50;;;3.80;;
11618;SDS011;5865;48.776;9.280;2023-09-08T15:05:06;4.00;;;3.60;;
11618;SDS011;5865;48.776;9.280;2023-09-08T15:07:50;4.03;;;3.33;;
11618;SDS011;5865;48.776;9.280;2023-09-08T15:10:31;4.15;;;3.75;;
11618;SDS011;5865;48.776;9.280;2023-09-08T15:13:00;3.85;;;3.40;;
11618;SDS011;5865;48.776;9.280;2023-09-08T15:15:34;3.72;;;3.40;;
11618;SDS011;5865;48.776;9.280;2023-09-08T15:18:03;4.55;;;3.70;;
11618;SDS011;5865;48.776;9.280;2023-09-08T15:20:35;4.65;;;3.75;;
11618;SDS011;5865;48.776;9.280;2023-09-08T15:23:17;5.22;;;3.90;;
11618;SDS011;5865;48.776;9.280;2023-09-08T15:25:58;4.68;;;3.88;;
11618;SDS011;5865;48.776;9.280;2023-09-08T15:28:39;3.75;;;3.42;;
11618;SDS011;5865;48.776;9.280;2023-09-08T15:31:24;5.30;;;3.70;;
11618;SDS011;5865;48.776;9.280;2023-09-08T15:42:58;4.70;;;3.90;;
11618;SDS011;5865;48.776;9.280;2023-09-08T15:45:40;5.03;;;3.80;;
11618;SDS011;5865;48.776;9.280;2023-09-08T15:48:21;4.32;;;3.92;;
11618;SDS011;5865;48.776;9.280;2023-09-08T15:51:04;4.30;;;3.90;;
11618;SDS011;5865;48.776;9.280;2023-09-08T15:53:45;4.45;;;3.78;;
11618;SDS011;5865;48.776;9.280;2023-09-08T16:00:19;5.13;;;3.88;;
11618;SDS011;5865;48.776;9.280;2023-09-08T16:02:46;6.88;;;4.07;;
11618;SDS011;5865;48.776;9.280;2023-09-08T16:05:14;5.65;;;3.90;;
11618;SDS011;5865;48.776;9.280;2023-09-08T16:07:43;4.07;;;3.78;;
11618;SDS011;5865;48.776;9.280;2023-09-08T16:10:11;4.35;;;3.88;;
11618;SDS011;5865;48.776;9.280;2023-09-08T16:12:38;3.92;;;3.55;;
11618;SDS011;5865;48.776;9.280;2023-09-08T16:15:07;5.47;;;3.50;;
11618;SDS011;5865;48.776;9.280;2023-09-08T16:17:36;4.75;;;3.72;;
11618;SDS011;5865;48.776;9.280;2023-09-08T16:20:04;4.65;;;3.65;;
11618;SDS011;5865;48.776;9.280;2023-09-08T16:22:32;5.07;;;3.90;;
11618;SDS011;5865;48.776;9.280;2023-09-08T16:24:59;4.47;;;3.70;;
11618;SDS011;5865;48.776;9.280;2023-09-08T16:27:26;5.10;;;4.20;;
11618;SDS011;5865;48.776;9.280;2023-09-08T16:29:55;4.47;;;3.40;;
11618;SDS011;5865;48.776;9.280;2023-09-08T16:32:23;4.30;;;3.50;;
11618;SDS011;5865;48.776;9.280;2023-09-08T16:34:52;3.97;;;3.58;;
11618;SDS011;5865;48.776;9.280;2023-09-08T16:37:19;3.85;;;3.47;;
11618;SDS011;5865;48.776;9.280;2023-09-08T16:39:47;5.55;;;4.75;;
11618;SDS011;5865;48.776;9.280;2023-09-08T16:42:16;5.15;;;4.05;;
11618;SDS011;5865;48.776;9.280;2023-09-08T16:44:44;4.32;;;3.63;;
11618;SDS011;5865;48.776;9.280;2023-09-08T16:47:12;4.50;;;4.10;;
11618;SDS011;5865;48.776;9.280;2023-09-08T16:49:40;4.28;;;3.88;;
11618;SDS011;5865;48.776;9.280;2023-09-08T16:52:08;4.22;;;3.83;;
11618;SDS011;5865;48.776;9.280;2023-09-08T16:54:35;4.32;;;3.92;;
11618;SDS011;5865;48.776;9.280;2023-09-08T16:57:03;4.60;;;4.05;;
11618;SDS011;5865;48.776;9.280;2023-09-08T16:59:30;4.53;;;4.03;;
11618;SDS011;5865;48.776;9.280;2023-09-08T17:01:57;5.82;;;4.22;;
11618;SDS011;5865;48.776;9.280;2023-09-08T17:04:24;4.85;;;4.03;;
11618;SDS011;5865;48.776;9.280;2023-09-08T17:06:53;4.93;;;4.45;;
11618;SDS011;5865;48.776;9.280;2023-09-08T17:09:22;5.85;;;4.78;;
11618;SDS011;5865;48.776;9.280;2023-09-08T17:11:51;5.07;;;4.57;;
11618;SDS011;5865;48.776;9.280;2023-09-08T17:14:18;4.63;;;4.20;;
11618;SDS011;5865;48.776;9.280;2023-09-08T17:16:45;6.03;;;4.00;;
11618;SDS011;5865;48.776;9.280;2023-09-08T17:19:12;4.78;;;4.35;;
11618;SDS011;5865;48.776;9.280;2023-09-08T17:21:42;5.05;;;4.55;;
11618;SDS011;5865;48.776;9.280;2023-09-08T17:24:11;5.55;;;4.32;;
11618;SDS011;5865;48.776;9.280;2023-09-08T17:26:41;5.28;;;4.20;;
11618;SDS011;5865;48.776;9.280;2023-09-08T17:29:08;6.57;;;4.25;;
11618;SDS011;5865;48.776;9.280;2023-09-08T17:31:35;6.97;;;4.78;;
11618;SDS011;5865;48.776;9.280;2023-09-08T17:34:05;5.80;;;5.15;;
11618;SDS011;5865;48.776;9.280;2023-09-08T17:36:34;9.50;;;7.50;;
11618;SDS011;5865;48.776;9.280;2023-09-08T17:39:02;14.43;;;10.27;;
11618;SDS011;5865;48.776;9.280;2023-09-08T17:41:30;15.07;;;11.15;;
11618;SDS011;5865;48.776;9.280;2023-09-08T17:43:59;18.48;;;13.85;;
11618;SDS011;5865;48.776;9.280;2023-09-08T17:46:26;18.45;;;13.98;;
11618;SDS011;5865;48.776;9.280;2023-09-08T17:48:53;18.75;;;13.23;;
11618;SDS011;5865;48.776;9.280;2023-09-08T17:51:21;21.00;;;13.43;;
11618;SDS011;5865;48.776;9.280;2023-09-08T17:53:48;22.83;;;13.40;;
11618;SDS011;5865;48.776;9.280;2023-09-08T17:56:16;19.10;;;12.80;;
11618;SDS011;5865;48.776;9.280;2023-09-08T17:58:44;18.52;;;12.55;;
11618;SDS011;5865;48.776;9.280;2023-09-08T18:01:13;15.27;;;10.60;;
11618;SDS011;5865;48.776;9.280;2023-09-08T18:03:40;13.73;;;9.23;;
11618;SDS011;5865;48.776;9.280;2023-09-08T18:06:07;8.30;;;7.00;;
11618;SDS011;5865;48.776;9.280;2023-09-08T18:08:35;8.90;;;7.10;;
11618;SDS011;5865;48.776;9.280;2023-09-08T18:11:02;6.68;;;5.90;;
11618;SDS011;5865;48.776;9.280;2023-09-08T18:13:30;8.50;;;5.97;;
11618;SDS011;5865;48.776;9.280;2023-09-08T18:15:57;7.10;;;6.03;;
11618;SDS011;5865;48.776;9.280;2023-09-08T18:18:26;7.57;;;5.70;;
11618;SDS011;5865;48.776;9.280;2023-09-08T18:20:53;6.68;;;5.53;;
11618;SDS011;5865;48.776;9.280;2023-09-08T18:23:20;7.43;;;5.57;;
11618;SDS011;5865;48.776;9.280;2023-09-08T18:25:47;8.18;;;5.70;;
11618;SDS011;5865;48.776;9.280;2023-09-08T18:28:14;6.70;;;5.68;;
11618;SDS011;5865;48.776;9.280;2023-09-08T18:33:34;6.75;;;5.15;;
11618;SDS011;5865;48.776;9.280;2023-09-08T18:36:02;6.18;;;4.80;;
11618;SDS011;5865;48.776;9.280;2023-09-08T18:38:29;7.07;;;4.60;;
11618;SDS011;5865;48.776;9.280;2023-09-08T18:40:58;5.63;;;5.13;;
11618;SDS011;5865;48.776;9.280;2023-09-08T18:43:25;5.88;;;5.28;;
11618;SDS011;5865;48.776;9.280;2023-09-08T18:45:52;6.57;;;5.38;;
11618;SDS011;5865;48.776;9.280;2023-09-08T18:48:19;6.05;;;5.35;;
11618;SDS011;5865;48.776;9.280;2023-09-08T18:53:57;5.30;;;4.80;;
11618;SDS011;5865;48.776;9.280;2023-09-08T18:56:38;6.18;;;5.15;;
11618;SDS011;5865;48.776;9.280;2023-09-08T18:59:19;5.43;;;4.93;;
11618;SDS011;5865;48.776;9.280;2023-09-08T19:01:49;5.15;;;4.75;;
11618;SDS011;5865;48.776;9.280;2023-09-08T19:04:22;5.55;;;5.00;;
11618;SDS011;5865;48.776;9.280;2023-09-08T19:07:13;6.63;;;5.13;;
11618;SDS011;5865;48.776;9.280;2023-09-08T19:09:40;5.20;;;4.40;;
11618;SDS011;5865;48.776;9.280;2023-09-08T19:12:21;5.75;;;4.88;;
11618;SDS011;5865;48.776;9.280;2023-09-08T19:14:49;5.75;;;5.20;;
11618;SDS011;5865;48.776;9.280;2023-09-08T19:17:30;5.53;;;5.03;;
11618;SDS011;5865;48.776;9.280;2023-09-08T19:20:11;6.90;;;5.97;;
11618;SDS011;5865;48.776;9.280;2023-09-08T19:25:59;5.80;;;5.20;;
11618;SDS011;5865;48.776;9.280;2023-09-08T19:28:44;6.32;;;5.38;;
11618;SDS011;5865;48.776;9.280;2023-09-08T19:31:25;5.30;;;4.65;;
11618;SDS011;5865;48.776;9.280;2023-09-08T19:33:52;5.70;;;5.15;;
11618;SDS011;5865;48.776;9.280;2023-09-08T19:36:21;6.40;;;5.25;;
11618;SDS011;5865;48.776;9.280;2023-09-08T19:38:48;6.45;;;5.53;;
11618;SDS011;5865;48.776;9.280;2023-09-08T19:41:19;6.00;;;5.40;;
11618;SDS011;5865;48.776;9.280;2023-09-08T19:43:49;7.78;;;5.75;;
11618;SDS011;5865;48.776;9.280;2023-09-08T19:46:15;6.55;;;5.68;;
11618;SDS011;5865;48.776;9.280;2023-09-08T19:48:42;6.45;;;5.47;;
11618;SDS011;5865;48.776;9.280;2023-09-08T19:51:14;5.78;;;5.13;;
11618;SDS011;5865;48.776;9.280;2023-09-08T19:53:55;5.80;;;5.20;;
11618;SDS011;5865;48.776;9.280;2023-09-08T20:05:40;6.10;;;5.50;;
11618;SDS011;5865;48.776;9.280;2023-09-08T20:08:21;6.25;;;5.65;;
11618;SDS011;5865;48.776;9.280;2023-09-08T20:11:03;7.25;;;6.07;;
11618;SDS011;5865;48.776;9.280;2023-09-08T20:13:32;8.75;;;6.15;;
11618;SDS011;5865;48.776;9.280;2023-09-08T20:16:13;6.50;;;5.90;;
11618;SDS011;5865;48.776;9.280;2023-09-08T20:25:18;6.47;;;5.88;;
11618;SDS011;5865;48.776;9.280;2023-09-08T20:27:49;7.07;;;5.82;;
11618;SDS011;5865;48.776;9.280;2023-09-08T20:30:30;7.35;;;6.22;;
11618;SDS011;5865;48.776;9.280;2023-09-08T20:33:08;7.18;;;6.20;;
11618;SDS011;5865;48.776;9.280;2023-09-08T20:35:49;6.72;;;6.07;;
11618;SDS011;5865;48.776;9.280;2023-09-08T20:38:30;6.80;;;6.15;;
11618;SDS011;5865;48.776;9.280;2023-09-08T20:47:26;7.32;;;6.63;;
11618;SDS011;5865;48.776;9.280;2023-09-08T20:49:55;6.78;;;6.07;;
11618;SDS011;5865;48.776;9.280;2023-09-08T20:52:23;7.15;;;6.38;;
11618;SDS011;5865;48.776;9.280;2023-09-08T20:54:50;7.32;;;6.60;;
11618;SDS011;5865;48.776;9.280;2023-09-08T20:57:18;6.88;;;6.28;;
11618;SDS011;5865;48.776;9.280;2023-09-08T21:06:10;7.93;;;7.07;;
11618;SDS011;5865;48.776;9.280;2023-09-08T21:08:51;6.80;;;6.20;;
11618;SDS011;5865;48.776;9.280;2023-09-08T21:11:18;8.60;;;6.80;;
11618;SDS011;5865;48.776;9.280;2023-09-08T21:14:00;7.50;;;6.80;;
11618;SDS011;5865;48.776;9.280;2023-09-08T21:16:41;7.53;;;6.72;;
11618;SDS011;5865;48.776;9.280;2023-09-08T21:19:22;7.25;;;6.55;;
11618;SDS011;5865;48.776;9.280;2023-09-08T22:12:31;8.60;;;7.80;;
11618;SDS011;5865;48.776;9.280;2023-09-08T22:15:12;9.60;;;7.97;;
11618;SDS011;5865;48.776;9.280;2023-09-08T22:17:41;8.48;;;7.47;;
11618;SDS011;5865;48.776;9.280;2023-09-08T22:20:22;9.18;;;8.25;;
11618;SDS011;5865;48.776;9.280;2023-09-08T22:22:53;9.48;;;8.57;;
11618;SDS011;5865;48.776;9.280;2023-09-08T22:25:34;9.38;;;8.45;;
11618;SDS011;5865;48.776;9.280;2023-09-08T22:31:14;9.38;;;8.48;;
11618;SDS011;5865;48.776;9.280;2023-09-08T22:33:55;10.02;;;9.00;;
11618;SDS011;5865;48.776;9.280;2023-09-08T22:36:36;9.60;;;8.70;;
11618;SDS011;5865;48.776;9.280;2023-09-08T22:39:16;10.15;;;8.90;;
11618;SDS011;5865;48.776;9.280;2023-09-08T22:41:57;10.32;;;8.55;;
11618;SDS011;5865;48.776;9.280;2023-09-08T22:50:53;11.07;;;9.98;;
11618;SDS011;5865;48.776;9.280;2023-09-08T22:53:34;10.13;;;9.13;;
11618;SDS011;5865;48.776;9.280;2023-09-08T22:56:15;9.65;;;8.65;;
11618;SDS011;5865;48.776;9.280;2023-09-08T22:58:56;9.93;;;8.50;;
11618;SDS011;5865;48.776;9.280;2023-09-08T23:01:37;11.95;;;9.40;;
11618;SDS011;5865;48.776;9.280;2023-09-08T23:04:18;11.25;;;9.80;;
11618;SDS011;5865;48.776;9.280;2023-09-08T23:13:12;9.63;;;8.70;;
11618;SDS011;5865;48.776;9.280;2023-09-08T23:15:43;10.43;;;9.15;;
11618;SDS011;5865;48.776;9.280;2023-09-08T23:18:23;11.38;;;9.40;;
11618;SDS011;5865;48.776;9.280;2023-09-08T23:21:06;9.70;;;8.80;;
11618;SDS011;5865;48.776;9.280;2023-09-08T23:23:41;11.35;;;10.05;;
11618;SDS011;5865;48.776;9.280;2023-09-08T23:26:13;10.77;;;9.70;;
11618;SDS011;5865;48.776;9.280;2023-09-08T23:28:49;10.88;;;9.77;;
11618;SDS011;5865;48.776;9.280;2023-09-08T23:31:32;11.18;;;9.98;;
11618;SDS011;5865;48.776;9.280;2023-09-08T23:34:13;11.18;;;10.18;;
11618;SDS011;5865;48.776;9.280;2023-09-08T23:36:43;10.48;;;9.43;;
11618;SDS011;5865;48.776;9.280;2023-09-08T23:39:16;11.57;;;10.38;;
11618;SDS011;5865;48.776;9.280;2023-09-08T23:42:00;10.15;;;9.15;;
11618;SDS011;5865;48.776;9.280;2023-09-08T23:44:41;10.07;;;9.15;;
11618;SDS011;5865;48.776;9.280;2023-09-08T23:47:22;11.07;;;9.75;;
11618;SDS011;5865;48.776;9.280;2023-09-08T23:50:07;11.13;;;9.27;;
11618;SDS011;5865;48.776;9.280;2023-09-08T23:52:37;10.73;;;9.73;;
11618;SDS011;5865;48.776;9.280;2023-09-08T23:55:18;10.32;;;9.40;;
